sensor_id;sensor_type;location;lat;lon;timestamp;pressure;altitude;pressure_sealevel;temperature;humidity
29385;BME280;16367;48.736;9.218;2022-07-04T00:00:09;-23850.34;;;21.69;69.71
29385;BME280;16367;48.736;9.218;2022-07-04T00:02:14;-23848.16;;;21.62;69.56
29385;BME280;16367;48.736;9.218;2022-07-04T00:04:16;-23854.09;;;21.81;68.60
29385;BME280;16367;48.736;9.218;2022-07-04T00:06:19;-23849.09;;;21.65;68.53
29385;BME280;16367;48.736;9.218;2022-07-04T00:08:22;-23851.91;;;21.74;69.02
29385;BME280;16367;48.736;9.218;2022-07-04T00:10:25;-23851.28;;;21.72;68.93
29385;BME280;16367;48.736;9.218;2022-07-04T00:12:29;-23853.78;;;21.80;68.21
29385;BME280;16367;48.736;9.218;2022-07-04T00:14:31;-23852.22;;;21.75;68.66
29385;BME280;16367;48.736;9.218;2022-07-04T00:16:41;-23857.56;;;21.92;67.67
29385;BME280;16367;48.736;9.218;2022-07-04T00:18:45;-23852.84;;;21.77;68.18
29385;BME280;16367;48.736;9.218;2022-07-04T00:20:47;-23843.44;;;21.46;68.94
29385;BME280;16367;48.736;9.218;2022-07-04T00:22:50;-23854.09;;;21.81;68.02
29385;BME280;16367;48.736;9.218;2022-07-04T00:24:53;-23852.22;;;21.75;68.31
29385;BME280;16367;48.736;9.218;2022-07-04T00:26:56;-23848.78;;;21.64;68.54
29385;BME280;16367;48.736;9.218;2022-07-04T00:28:58;-23847.84;;;21.61;68.97
29385;BME280;16367;48.736;9.218;2022-07-04T00:31:01;-23846.28;;;21.56;68.78
29385;BME280;16367;48.736;9.218;2022-07-04T00:33:04;-23843.75;;;21.47;68.73
29385;BME280;16367;48.736;9.218;2022-07-04T00:35:08;-23850.34;;;21.69;68.08
29385;BME280;16367;48.736;9.218;2022-07-04T00:37:11;-23842.03;;;21.42;69.15
29385;BME280;16367;48.736;9.218;2022-07-04T00:39:14;-23840.16;;;21.36;68.99
29385;BME280;16367;48.736;9.218;2022-07-04T00:41:17;-23835.94;;;21.22;69.65
29385;BME280;16367;48.736;9.218;2022-07-04T00:43:21;-23837.34;;;21.27;69.91
29385;BME280;16367;48.736;9.218;2022-07-04T00:45:25;-23840.63;;;21.37;69.95
29385;BME280;16367;48.736;9.218;2022-07-04T00:47:28;-23835.94;;;21.22;69.79
29385;BME280;16367;48.736;9.218;2022-07-04T00:49:30;-23835.00;;;21.19;69.91
29385;BME280;16367;48.736;9.218;2022-07-04T00:51:37;-23832.66;;;21.12;70.14
29385;BME280;16367;48.736;9.218;2022-07-04T00:53:40;-23833.28;;;21.14;70.22
29385;BME280;16367;48.736;9.218;2022-07-04T00:55:44;-23834.06;;;21.16;69.46
29385;BME280;16367;48.736;9.218;2022-07-04T00:57:47;-23828.25;;;20.98;70.42
29385;BME280;16367;48.736;9.218;2022-07-04T00:59:50;-23830.91;;;21.06;70.84
29385;BME280;16367;48.736;9.218;2022-07-04T01:01:53;-23827.16;;;20.94;70.49
29385;BME280;16367;48.736;9.218;2022-07-04T01:03:56;-23835.63;;;21.21;70.29
29385;BME280;16367;48.736;9.218;2022-07-04T01:06:00;-23833.13;;;21.13;70.03
29385;BME280;16367;48.736;9.218;2022-07-04T01:08:04;-23829.34;;;21.01;70.95
29385;BME280;16367;48.736;9.218;2022-07-04T01:10:08;-23828.09;;;20.97;70.20
29385;BME280;16367;48.736;9.218;2022-07-04T01:12:11;-23829.97;;;21.03;70.38
29385;BME280;16367;48.736;9.218;2022-07-04T01:14:14;-23826.84;;;20.93;70.13
29385;BME280;16367;48.736;9.218;2022-07-04T01:16:16;-23826.06;;;20.91;70.89
29385;BME280;16367;48.736;9.218;2022-07-04T01:18:19;-23820.56;;;20.73;71.18
29385;BME280;16367;48.736;9.218;2022-07-04T01:20:23;-23820.88;;;20.74;71.22
29385;BME280;16367;48.736;9.218;2022-07-04T01:22:26;-23823.38;;;20.82;71.35
29385;BME280;16367;48.736;9.218;2022-07-04T01:24:29;-23821.97;;;20.77;71.48
29385;BME280;16367;48.736;9.218;2022-07-04T01:26:32;-23828.56;;;20.99;70.92
29385;BME280;16367;48.736;9.218;2022-07-04T01:28:36;-23817.13;;;20.62;71.99
29385;BME280;16367;48.736;9.218;2022-07-04T01:30:38;-23821.81;;;20.77;72.01
29385;BME280;16367;48.736;9.218;2022-07-04T01:32:41;-23827.31;;;20.95;71.36
29385;BME280;16367;48.736;9.218;2022-07-04T01:34:44;-23822.44;;;20.79;71.63
29385;BME280;16367;48.736;9.218;2022-07-04T01:36:49;-23818.06;;;20.65;71.70
29385;BME280;16367;48.736;9.218;2022-07-04T01:38:51;-23815.84;;;20.58;72.81
29385;BME280;16367;48.736;9.218;2022-07-04T01:40:55;-23818.53;;;20.66;72.18
29385;BME280;16367;48.736;9.218;2022-07-04T01:42:58;-23814.28;;;20.53;72.62
29385;BME280;16367;48.736;9.218;2022-07-04T01:45:01;-23819.94;;;20.71;72.06
29385;BME280;16367;48.736;9.218;2022-07-04T01:47:04;-23819.31;;;20.69;71.90
29385;BME280;16367;48.736;9.218;2022-07-04T01:49:07;-23813.19;;;20.49;72.69
29385;BME280;16367;48.736;9.218;2022-07-04T01:51:10;-23813.50;;;20.50;73.25
29385;BME280;16367;48.736;9.218;2022-07-04T01:53:14;-23817.44;;;20.63;72.64
29385;BME280;16367;48.736;9.218;2022-07-04T01:55:17;-23814.59;;;20.54;73.09
29385;BME280;16367;48.736;9.218;2022-07-04T01:57:19;-23815.38;;;20.56;72.81
29385;BME280;16367;48.736;9.218;2022-07-04T01:59:22;-23815.84;;;20.58;72.98
29385;BME280;16367;48.736;9.218;2022-07-04T02:01:45;-23812.09;;;20.46;73.16
29385;BME280;16367;48.736;9.218;2022-07-04T02:03:47;-23810.22;;;20.40;73.60
29385;BME280;16367;48.736;9.218;2022-07-04T02:05:50;-23811.78;;;20.45;73.36
29385;BME280;16367;48.736;9.218;2022-07-04T02:07:52;-23813.66;;;20.51;73.40
29385;BME280;16367;48.736;9.218;2022-07-04T02:09:56;-23810.53;;;20.41;74.29
29385;BME280;16367;48.736;9.218;2022-07-04T02:11:59;-23813.34;;;20.50;73.84
29385;BME280;16367;48.736;9.218;2022-07-04T02:14:19;-23814.44;;;20.53;73.46
29385;BME280;16367;48.736;9.218;2022-07-04T02:16:22;-23815.53;;;20.57;73.46
29385;BME280;16367;48.736;9.218;2022-07-04T02:18:25;-23805.81;;;20.26;74.39
29385;BME280;16367;48.736;9.218;2022-07-04T02:20:28;-23809.91;;;20.39;74.95
29385;BME280;16367;48.736;9.218;2022-07-04T02:22:31;-23807.53;;;20.31;74.85
29385;BME280;16367;48.736;9.218;2022-07-04T02:24:34;-23803.16;;;20.17;75.44
29385;BME280;16367;48.736;9.218;2022-07-04T02:26:38;-23810.22;;;20.40;74.06
29385;BME280;16367;48.736;9.218;2022-07-04T02:28:41;-23802.06;;;20.14;75.14
29385;BME280;16367;48.736;9.218;2022-07-04T02:30:44;-23801.56;;;20.12;75.25
29385;BME280;16367;48.736;9.218;2022-07-04T02:32:47;-23806.59;;;20.28;75.31
29385;BME280;16367;48.736;9.218;2022-07-04T02:34:49;-23808.50;;;20.34;74.68
29385;BME280;16367;48.736;9.218;2022-07-04T02:36:52;-23801.28;;;20.11;76.09
29385;BME280;16367;48.736;9.218;2022-07-04T02:38:55;-23792.47;;;19.83;77.28
29385;BME280;16367;48.736;9.218;2022-07-04T02:40:58;-23801.41;;;20.12;76.50
29385;BME280;16367;48.736;9.218;2022-07-04T02:43:02;-23806.13;;;20.27;75.37
29385;BME280;16367;48.736;9.218;2022-07-04T02:45:06;-23797.66;;;19.99;76.09
29385;BME280;16367;48.736;9.218;2022-07-04T02:47:09;-23797.66;;;19.99;76.62
29385;BME280;16367;48.736;9.218;2022-07-04T02:49:12;-23797.66;;;19.99;76.59
29385;BME280;16367;48.736;9.218;2022-07-04T02:51:15;-23797.03;;;19.97;76.85
29385;BME280;16367;48.736;9.218;2022-07-04T02:53:18;-23801.56;;;20.12;75.60
29385;BME280;16367;48.736;9.218;2022-07-04T02:55:21;-23798.59;;;20.02;75.72
29385;BME280;16367;48.736;9.218;2022-07-04T02:57:24;-23799.69;;;20.06;76.19
29385;BME280;16367;48.736;9.218;2022-07-04T02:59:28;-23793.09;;;19.85;77.07
29385;BME280;16367;48.736;9.218;2022-07-04T03:01:31;-23794.03;;;19.88;77.05
29385;BME280;16367;48.736;9.218;2022-07-04T03:03:35;-23797.50;;;19.99;75.99
29385;BME280;16367;48.736;9.218;2022-07-04T03:05:38;-23794.19;;;19.88;76.52
29385;BME280;16367;48.736;9.218;2022-07-04T03:07:41;-23791.06;;;19.78;78.00
29385;BME280;16367;48.736;9.218;2022-07-04T03:09:44;-23785.56;;;19.61;78.31
29385;BME280;16367;48.736;9.218;2022-07-04T03:11:46;-23782.13;;;19.50;78.33
29385;BME280;16367;48.736;9.218;2022-07-04T03:13:49;-23787.28;;;19.66;78.17
29385;BME280;16367;48.736;9.218;2022-07-04T03:15:54;-23781.66;;;19.48;79.22
29385;BME280;16367;48.736;9.218;2022-07-04T03:17:57;-23777.88;;;19.36;79.28
29385;BME280;16367;48.736;9.218;2022-07-04T03:19:59;-23779.59;;;19.42;78.88
29385;BME280;16367;48.736;9.218;2022-07-04T03:22:03;-23779.75;;;19.42;79.23
29385;BME280;16367;48.736;9.218;2022-07-04T03:24:05;-23782.44;;;19.51;78.54
29385;BME280;16367;48.736;9.218;2022-07-04T03:26:10;-23769.38;;;19.09;80.28
29385;BME280;16367;48.736;9.218;2022-07-04T03:28:13;-23770.00;;;19.11;80.10
29385;BME280;16367;48.736;9.218;2022-07-04T03:30:15;-23775.03;;;19.27;80.00
29385;BME280;16367;48.736;9.218;2022-07-04T03:32:19;-23776.94;;;19.33;79.86
29385;BME280;16367;48.736;9.218;2022-07-04T03:34:22;-23774.72;;;19.26;79.90
29385;BME280;16367;48.736;9.218;2022-07-04T03:36:25;-23777.41;;;19.35;79.71
29385;BME280;16367;48.736;9.218;2022-07-04T03:38:28;-23778.66;;;19.39;79.60
29385;BME280;16367;48.736;9.218;2022-07-04T03:40:30;-23774.72;;;19.26;80.20
29385;BME280;16367;48.736;9.218;2022-07-04T03:42:34;-23769.69;;;19.10;80.53
29385;BME280;16367;48.736;9.218;2022-07-04T03:44:36;-23774.72;;;19.26;80.08
29385;BME280;16367;48.736;9.218;2022-07-04T03:46:39;-23775.03;;;19.27;80.57
29385;BME280;16367;48.736;9.218;2022-07-04T03:48:43;-23777.09;;;19.33;80.40
29385;BME280;16367;48.736;9.218;2022-07-04T03:50:46;-23775.03;;;19.27;80.62
29385;BME280;16367;48.736;9.218;2022-07-04T03:52:49;-23781.50;;;19.48;79.79
29385;BME280;16367;48.736;9.218;2022-07-04T03:54:52;-23777.88;;;19.36;79.17
29385;BME280;16367;48.736;9.218;2022-07-04T03:56:54;-23778.34;;;19.38;79.29
29385;BME280;16367;48.736;9.218;2022-07-04T03:58:57;-23781.00;;;19.46;79.21
29385;BME280;16367;48.736;9.218;2022-07-04T04:01:00;-23773.16;;;19.21;80.29
29385;BME280;16367;48.736;9.218;2022-07-04T04:03:03;-23775.66;;;19.29;80.18
29385;BME280;16367;48.736;9.218;2022-07-04T04:05:27;-23772.53;;;19.19;81.21
29385;BME280;16367;48.736;9.218;2022-07-04T04:07:29;-23778.81;;;19.39;79.65
29385;BME280;16367;48.736;9.218;2022-07-04T04:09:32;-23772.84;;;19.20;81.34
29385;BME280;16367;48.736;9.218;2022-07-04T04:11:35;-23767.81;;;19.04;82.26
29385;BME280;16367;48.736;9.218;2022-07-04T04:13:38;-23764.69;;;18.94;82.29
29385;BME280;16367;48.736;9.218;2022-07-04T04:15:40;-23771.75;;;19.16;81.31
29385;BME280;16367;48.736;9.218;2022-07-04T04:17:43;-23776.31;;;19.31;80.37
29385;BME280;16367;48.736;9.218;2022-07-04T04:19:46;-23767.19;;;19.02;81.57
29385;BME280;16367;48.736;9.218;2022-07-04T04:21:50;-23763.88;;;18.91;82.31
29385;BME280;16367;48.736;9.218;2022-07-04T04:23:53;-23771.44;;;19.15;81.89
29385;BME280;16367;48.736;9.218;2022-07-04T04:25:56;-23776.00;;;19.30;81.10
29385;BME280;16367;48.736;9.218;2022-07-04T04:27:59;-23772.22;;;19.18;80.66
29385;BME280;16367;48.736;9.218;2022-07-04T04:30:02;-23773.78;;;19.23;81.00
29385;BME280;16367;48.736;9.218;2022-07-04T04:32:06;-23776.94;;;19.33;80.51
29385;BME280;16367;48.736;9.218;2022-07-04T04:34:09;-23768.75;;;19.07;80.75
29385;BME280;16367;48.736;9.218;2022-07-04T04:36:12;-23765.94;;;18.98;81.81
29385;BME280;16367;48.736;9.218;2022-07-04T04:38:16;-23776.31;;;19.31;80.86
29385;BME280;16367;48.736;9.218;2022-07-04T04:40:19;-23782.59;;;19.51;79.12
29385;BME280;16367;48.736;9.218;2022-07-04T04:42:22;-23769.69;;;19.10;81.53
29385;BME280;16367;48.736;9.218;2022-07-04T04:44:25;-23768.13;;;19.05;81.50
29385;BME280;16367;48.736;9.218;2022-07-04T04:46:27;-23772.22;;;19.18;81.22
29385;BME280;16367;48.736;9.218;2022-07-04T04:48:30;-23781.97;;;19.49;79.90
29385;BME280;16367;48.736;9.218;2022-07-04T04:50:33;-23782.59;;;19.51;79.65
29385;BME280;16367;48.736;9.218;2022-07-04T04:52:36;-23775.34;;;19.28;80.68
29385;BME280;16367;48.736;9.218;2022-07-04T04:54:40;-23773.78;;;19.23;81.88
29385;BME280;16367;48.736;9.218;2022-07-04T04:56:43;-23776.00;;;19.30;80.67
29385;BME280;16367;48.736;9.218;2022-07-04T04:58:46;-23771.59;;;19.16;81.29
29385;BME280;16367;48.736;9.218;2022-07-04T05:00:49;-23785.72;;;19.61;80.10
29385;BME280;16367;48.736;9.218;2022-07-04T05:03:12;-23782.59;;;19.51;79.66
29385;BME280;16367;48.736;9.218;2022-07-04T05:05:14;-23789.81;;;19.74;78.91
29385;BME280;16367;48.736;9.218;2022-07-04T05:07:17;-23791.84;;;19.81;78.84
29385;BME280;16367;48.736;9.218;2022-07-04T05:09:21;-23790.44;;;19.76;77.89
29385;BME280;16367;48.736;9.218;2022-07-04T05:11:25;-23800.00;;;20.07;76.33
29385;BME280;16367;48.736;9.218;2022-07-04T05:13:28;-23782.28;;;19.50;77.78
29385;BME280;16367;48.736;9.218;2022-07-04T05:15:31;-23778.81;;;19.39;79.58
29385;BME280;16367;48.736;9.218;2022-07-04T05:17:34;-23783.38;;;19.54;79.30
29385;BME280;16367;48.736;9.218;2022-07-04T05:19:37;-23785.41;;;19.60;79.38
29385;BME280;16367;48.736;9.218;2022-07-04T05:21:40;-23786.03;;;19.62;79.64
29385;BME280;16367;48.736;9.218;2022-07-04T05:23:43;-23794.53;;;19.89;77.92
29385;BME280;16367;48.736;9.218;2022-07-04T05:25:45;-23793.72;;;19.87;78.12
29385;BME280;16367;48.736;9.218;2022-07-04T05:27:50;-23782.28;;;19.50;79.37
29385;BME280;16367;48.736;9.218;2022-07-04T05:29:53;-23788.25;;;19.69;78.98
29385;BME280;16367;48.736;9.218;2022-07-04T05:31:56;-23784.16;;;19.56;80.41
29385;BME280;16367;48.736;9.218;2022-07-04T05:33:59;-23771.44;;;19.15;82.25
29385;BME280;16367;48.736;9.218;2022-07-04T05:36:02;-23781.00;;;19.46;81.29
29385;BME280;16367;48.736;9.218;2022-07-04T05:38:04;-23781.00;;;19.46;81.11
29385;BME280;16367;48.736;9.218;2022-07-04T05:40:08;-23778.50;;;19.38;80.24
29385;BME280;16367;48.736;9.218;2022-07-04T05:42:11;-23783.06;;;19.53;80.06
29385;BME280;16367;48.736;9.218;2022-07-04T05:44:15;-23803.00;;;20.17;78.41
29385;BME280;16367;48.736;9.218;2022-07-04T05:46:18;-23812.72;;;20.48;75.26
29385;BME280;16367;48.736;9.218;2022-07-04T05:48:21;-23832.47;;;21.11;72.41
29385;BME280;16367;48.736;9.218;2022-07-04T05:50:24;-23829.97;;;21.03;72.02
29385;BME280;16367;48.736;9.218;2022-07-04T05:52:33;-23835.31;;;21.20;73.09
29385;BME280;16367;48.736;9.218;2022-07-04T05:54:36;-23829.19;;;21.01;71.61
29385;BME280;16367;48.736;9.218;2022-07-04T05:56:38;-23812.25;;;20.46;73.53
29385;BME280;16367;48.736;9.218;2022-07-04T05:58:43;-23818.69;;;20.67;73.96
29385;BME280;16367;48.736;9.218;2022-07-04T06:00:47;-23831.06;;;21.07;72.59
29385;BME280;16367;48.736;9.218;2022-07-04T06:02:50;-23847.53;;;21.60;70.65
29385;BME280;16367;48.736;9.218;2022-07-04T06:04:53;-23845.34;;;21.52;68.97
29385;BME280;16367;48.736;9.218;2022-07-04T06:06:56;-23835.94;;;21.22;71.14
29385;BME280;16367;48.736;9.218;2022-07-04T06:08:59;-23832.16;;;21.10;70.58
29385;BME280;16367;48.736;9.218;2022-07-04T06:11:02;-23843.44;;;21.46;69.52
29385;BME280;16367;48.736;9.218;2022-07-04T06:13:05;-23834.38;;;21.17;70.24
29385;BME280;16367;48.736;9.218;2022-07-04T06:15:10;-23827.78;;;20.96;72.28
29385;BME280;16367;48.736;9.218;2022-07-04T06:17:15;-23831.53;;;21.08;71.35
29385;BME280;16367;48.736;9.218;2022-07-04T06:19:18;-23815.53;;;20.57;73.11
29385;BME280;16367;48.736;9.218;2022-07-04T06:21:20;-23821.34;;;20.75;72.35
29385;BME280;16367;48.736;9.218;2022-07-04T06:23:23;-23816.81;;;20.61;71.80
29385;BME280;16367;48.736;9.218;2022-07-04T06:25:26;-23822.28;;;20.78;72.97
29385;BME280;16367;48.736;9.218;2022-07-04T06:27:29;-23823.53;;;20.83;73.54
29385;BME280;16367;48.736;9.218;2022-07-04T06:29:32;-23826.69;;;20.93;72.03
29385;BME280;16367;48.736;9.218;2022-07-04T06:31:35;-23814.91;;;20.55;71.43
29385;BME280;16367;48.736;9.218;2022-07-04T06:33:39;-23837.50;;;21.27;71.18
29385;BME280;16367;48.736;9.218;2022-07-04T06:35:56;-23845.34;;;21.52;69.28
29385;BME280;16367;48.736;9.218;2022-07-04T06:38:00;-23850.81;;;21.70;70.80
29385;BME280;16367;48.736;9.218;2022-07-04T06:40:03;-23842.50;;;21.43;69.83
29385;BME280;16367;48.736;9.218;2022-07-04T06:42:07;-23866.31;;;22.20;67.46
29385;BME280;16367;48.736;9.218;2022-07-04T06:44:09;-23860.06;;;22.00;66.76
29385;BME280;16367;48.736;9.218;2022-07-04T06:46:14;-23870.09;;;22.32;64.54
29385;BME280;16367;48.736;9.218;2022-07-04T06:48:18;-23854.25;;;21.81;67.42
29385;BME280;16367;48.736;9.218;2022-07-04T06:50:23;-23876.03;;;22.51;63.90
29385;BME280;16367;48.736;9.218;2022-07-04T06:52:41;-23861.00;;;22.03;66.20
29385;BME280;16367;48.736;9.218;2022-07-04T06:54:43;-23835.00;;;21.19;68.85
29385;BME280;16367;48.736;9.218;2022-07-04T06:56:46;-23831.53;;;21.08;67.80
29385;BME280;16367;48.736;9.218;2022-07-04T06:58:49;-23826.53;;;20.92;70.25
29385;BME280;16367;48.736;9.218;2022-07-04T07:00:52;-23836.88;;;21.25;68.84
29385;BME280;16367;48.736;9.218;2022-07-04T07:02:54;-23842.81;;;21.44;69.23
29385;BME280;16367;48.736;9.218;2022-07-04T07:04:57;-23838.13;;;21.29;69.28
29385;BME280;16367;48.736;9.218;2022-07-04T07:07:09;-23851.44;;;21.72;67.19
29385;BME280;16367;48.736;9.218;2022-07-04T07:09:12;-23841.56;;;21.40;68.59
29385;BME280;16367;48.736;9.218;2022-07-04T07:11:14;-23851.28;;;21.72;67.13
29385;BME280;16367;48.736;9.218;2022-07-04T07:13:20;-23848.31;;;21.62;69.49
29385;BME280;16367;48.736;9.218;2022-07-04T07:15:23;-23864.75;;;22.15;64.80
29385;BME280;16367;48.736;9.218;2022-07-04T07:17:32;-23853.47;;;21.79;67.21
29385;BME280;16367;48.736;9.218;2022-07-04T07:19:35;-23853.31;;;21.78;67.59
29385;BME280;16367;48.736;9.218;2022-07-04T07:21:38;-23853.78;;;21.80;68.89
29385;BME280;16367;48.736;9.218;2022-07-04T07:23:42;-23840.63;;;21.37;69.12
29385;BME280;16367;48.736;9.218;2022-07-04T07:25:45;-23841.56;;;21.40;69.94
29385;BME280;16367;48.736;9.218;2022-07-04T07:27:48;-23854.25;;;21.81;68.09
29385;BME280;16367;48.736;9.218;2022-07-04T07:29:50;-23868.69;;;22.27;66.82
29385;BME280;16367;48.736;9.218;2022-07-04T07:31:53;-23846.91;;;21.58;70.07
29385;BME280;16367;48.736;9.218;2022-07-04T07:33:56;-23865.22;;;22.16;67.49
29385;BME280;16367;48.736;9.218;2022-07-04T07:35:59;-23856.31;;;21.88;67.87
29385;BME280;16367;48.736;9.218;2022-07-04T07:38:02;-23843.44;;;21.46;70.41
29385;BME280;16367;48.736;9.218;2022-07-04T07:40:08;-23835.63;;;21.21;71.35
29385;BME280;16367;48.736;9.218;2022-07-04T07:42:10;-23856.47;;;21.88;68.92
29385;BME280;16367;48.736;9.218;2022-07-04T07:44:13;-23870.41;;;22.33;67.40
29385;BME280;16367;48.736;9.218;2022-07-04T07:46:16;-23857.88;;;21.93;68.54
29385;BME280;16367;48.736;9.218;2022-07-04T07:48:19;-23861.47;;;22.04;68.00
29385;BME280;16367;48.736;9.218;2022-07-04T07:50:22;-23831.53;;;21.08;70.38
29385;BME280;16367;48.736;9.218;2022-07-04T07:52:25;-23850.97;;;21.71;68.48
29385;BME280;16367;48.736;9.218;2022-07-04T07:54:28;-23845.19;;;21.52;68.49
29385;BME280;16367;48.736;9.218;2022-07-04T07:56:52;-23852.69;;;21.76;67.42
29385;BME280;16367;48.736;9.218;2022-07-04T07:58:55;-23856.00;;;21.87;69.15
29385;BME280;16367;48.736;9.218;2022-07-04T08:00:58;-23840.31;;;21.36;68.78
29385;BME280;16367;48.736;9.218;2022-07-04T08:03:01;-23846.59;;;21.57;68.72
29385;BME280;16367;48.736;9.218;2022-07-04T08:05:22;-23881.34;;;22.68;64.78
29385;BME280;16367;48.736;9.218;2022-07-04T08:07:24;-23872.28;;;22.39;66.08
29385;BME280;16367;48.736;9.218;2022-07-04T08:09:27;-23886.38;;;22.84;65.09
29385;BME280;16367;48.736;9.218;2022-07-04T08:11:30;-23883.69;;;22.76;64.41
29385;BME280;16367;48.736;9.218;2022-07-04T08:13:34;-23838.91;;;21.32;70.50
29385;BME280;16367;48.736;9.218;2022-07-04T08:15:37;-23832.16;;;21.10;71.54
29385;BME280;16367;48.736;9.218;2022-07-04T08:17:40;-23830.91;;;21.06;72.88
29385;BME280;16367;48.736;9.218;2022-07-04T08:19:43;-23843.75;;;21.47;71.17
29385;BME280;16367;48.736;9.218;2022-07-04T08:21:46;-23856.63;;;21.89;69.88
29385;BME280;16367;48.736;9.218;2022-07-04T08:24:09;-23861.47;;;22.04;70.53
29385;BME280;16367;48.736;9.218;2022-07-04T08:26:20;-23860.69;;;22.02;69.81
29385;BME280;16367;48.736;9.218;2022-07-04T08:28:23;-23846.91;;;21.58;71.33
29385;BME280;16367;48.736;9.218;2022-07-04T08:30:27;-23851.13;;;21.71;71.41
29385;BME280;16367;48.736;9.218;2022-07-04T08:32:30;-23865.84;;;22.18;71.00
29385;BME280;16367;48.736;9.218;2022-07-04T08:34:33;-23859.59;;;21.98;69.18
29385;BME280;16367;48.736;9.218;2022-07-04T08:36:36;-23854.56;;;21.82;69.25
29385;BME280;16367;48.736;9.218;2022-07-04T08:38:38;-23848.16;;;21.62;69.78
29385;BME280;16367;48.736;9.218;2022-07-04T08:40:41;-23847.53;;;21.60;70.13
29385;BME280;16367;48.736;9.218;2022-07-04T08:42:44;-23867.59;;;22.24;69.40
29385;BME280;16367;48.736;9.218;2022-07-04T08:44:48;-23857.25;;;21.91;69.66
29385;BME280;16367;48.736;9.218;2022-07-04T08:46:54;-23861.00;;;22.03;70.16
29385;BME280;16367;48.736;9.218;2022-07-04T08:48:58;-23866.00;;;22.19;69.28
29385;BME280;16367;48.736;9.218;2022-07-04T08:51:11;-23860.69;;;22.02;69.18
29385;BME280;16367;48.736;9.218;2022-07-04T08:53:18;-23859.13;;;21.97;69.20
29385;BME280;16367;48.736;9.218;2022-07-04T08:55:22;-23863.34;;;22.10;68.60
29385;BME280;16367;48.736;9.218;2022-07-04T08:57:43;-23853.31;;;21.78;69.37
29385;BME280;16367;48.736;9.218;2022-07-04T09:00:05;-23871.03;;;22.35;67.22
29385;BME280;16367;48.736;9.218;2022-07-04T09:02:11;-23859.44;;;21.98;70.02
29385;BME280;16367;48.736;9.218;2022-07-04T09:04:16;-23867.25;;;22.23;67.36
29385;BME280;16367;48.736;9.218;2022-07-04T09:06:19;-23866.47;;;22.20;67.40
29385;BME280;16367;48.736;9.218;2022-07-04T09:08:23;-23871.81;;;22.38;69.05
29385;BME280;16367;48.736;9.218;2022-07-04T09:10:26;-23875.72;;;22.50;68.12
29385;BME280;16367;48.736;9.218;2022-07-04T09:12:29;-23866.63;;;22.21;68.26
29385;BME280;16367;48.736;9.218;2022-07-04T09:14:52;-23865.69;;;22.18;69.10
29385;BME280;16367;48.736;9.218;2022-07-04T09:16:55;-23863.50;;;22.11;67.76
29385;BME280;16367;48.736;9.218;2022-07-04T09:18:59;-23884.16;;;22.77;67.18
29385;BME280;16367;48.736;9.218;2022-07-04T09:21:04;-23867.25;;;22.23;67.55
29385;BME280;16367;48.736;9.218;2022-07-04T09:23:17;-23900.91;;;23.31;64.29
29385;BME280;16367;48.736;9.218;2022-07-04T09:25:21;-23908.56;;;23.56;62.87
29385;BME280;16367;48.736;9.218;2022-07-04T09:27:31;-23911.22;;;23.64;63.32
29385;BME280;16367;48.736;9.218;2022-07-04T09:29:38;-23921.84;;;23.99;61.57
29385;BME280;16367;48.736;9.218;2022-07-04T09:31:42;-23955.75;;;25.08;58.77
29385;BME280;16367;48.736;9.218;2022-07-04T09:33:48;-23997.53;;;26.43;52.34
29385;BME280;16367;48.736;9.218;2022-07-04T09:35:54;-23994.72;;;26.34;52.44
29385;BME280;16367;48.736;9.218;2022-07-04T09:37:59;-23983.03;;;25.96;52.11
29385;BME280;16367;48.736;9.218;2022-07-04T09:40:04;-23984.44;;;26.01;54.25
29385;BME280;16367;48.736;9.218;2022-07-04T09:42:07;-23970.88;;;25.57;55.52
29385;BME280;16367;48.736;9.218;2022-07-04T09:44:10;-23974.16;;;25.67;53.76
29385;BME280;16367;48.736;9.218;2022-07-04T09:46:22;-24002.38;;;26.58;53.32
29385;BME280;16367;48.736;9.218;2022-07-04T09:48:25;-23979.78;;;25.85;54.51
29385;BME280;16367;48.736;9.218;2022-07-04T09:50:33;-24044.25;;;27.94;48.98
29385;BME280;16367;48.736;9.218;2022-07-04T09:52:49;-24082.78;;;29.19;45.79
29385;BME280;16367;48.736;9.218;2022-07-04T09:54:56;-24081.84;;;29.16;46.56
29385;BME280;16367;48.736;9.218;2022-07-04T09:57:01;-23982.88;;;25.96;51.73
29385;BME280;16367;48.736;9.218;2022-07-04T09:59:04;-23972.91;;;25.63;54.12
29385;BME280;16367;48.736;9.218;2022-07-04T10:01:08;-24018.09;;;27.09;46.68
29385;BME280;16367;48.736;9.218;2022-07-04T10:03:18;-24014.38;;;26.97;49.13
29385;BME280;16367;48.736;9.218;2022-07-04T10:05:25;-23991.78;;;26.24;49.04
29385;BME280;16367;48.736;9.218;2022-07-04T10:07:33;-24012.19;;;26.90;48.97
29385;BME280;16367;48.736;9.218;2022-07-04T10:09:38;-23993.78;;;26.31;52.35
29385;BME280;16367;48.736;9.218;2022-07-04T10:11:43;-23998.47;;;26.46;51.86
29385;BME280;16367;48.736;9.218;2022-07-04T10:13:46;-24030.72;;;27.50;49.82
29385;BME280;16367;48.736;9.218;2022-07-04T10:15:51;-24003.00;;;26.60;50.35
29385;BME280;16367;48.736;9.218;2022-07-04T10:17:53;-24029.16;;;27.45;48.67
29385;BME280;16367;48.736;9.218;2022-07-04T10:19:56;-24043.16;;;27.90;48.75
29385;BME280;16367;48.736;9.218;2022-07-04T10:22:00;-24069.72;;;28.76;44.68
29385;BME280;16367;48.736;9.218;2022-07-04T10:24:03;-24062.28;;;28.52;44.56
29385;BME280;16367;48.736;9.218;2022-07-04T10:26:07;-24005.47;;;26.69;50.13
29385;BME280;16367;48.736;9.218;2022-07-04T10:28:10;-24016.22;;;27.03;49.95
29385;BME280;16367;48.736;9.218;2022-07-04T10:30:15;-24005.31;;;26.68;49.23
29385;BME280;16367;48.736;9.218;2022-07-04T10:32:18;-24010.31;;;26.84;49.85
29385;BME280;16367;48.736;9.218;2022-07-04T10:34:21;-24023.06;;;27.25;47.83
29385;BME280;16367;48.736;9.218;2022-07-04T10:36:26;-24027.44;;;27.40;48.26
29385;BME280;16367;48.736;9.218;2022-07-04T10:38:31;-24026.50;;;27.37;47.81
29385;BME280;16367;48.736;9.218;2022-07-04T10:40:42;-24022.63;;;27.24;47.89
29385;BME280;16367;48.736;9.218;2022-07-04T10:42:47;-24027.59;;;27.40;47.49
29385;BME280;16367;48.736;9.218;2022-07-04T10:44:51;-24029.16;;;27.45;48.36
29385;BME280;16367;48.736;9.218;2022-07-04T10:46:54;-23985.38;;;26.04;50.90
29385;BME280;16367;48.736;9.218;2022-07-04T10:49:00;-24015.91;;;27.02;49.62